sensor_id;sensor_type;location;lat;lon;timestamp;P1;durP1;ratioP1;P2;durP2;ratioP2
66585;SDS011;53444;45.822;16.092;2022-12-19T00:01:30;28.55;;;12.60;;
66585;SDS011;53444;45.822;16.092;2022-12-19T00:03:59;29.00;;;12.68;;
66585;SDS011;53444;45.822;16.092;2022-12-19T00:06:27;20.65;;;10.60;;
66585;SDS011;53444;45.822;16.092;2022-12-19T00:08:55;27.88;;;12.52;;
66585;SDS011;53444;45.822;16.092;2022-12-19T00:11:23;21.33;;;9.50;;
66585;SDS011;53444;45.822;16.092;2022-12-19T00:13:50;32.55;;;12.05;;
66585;SDS011;53444;45.822;16.092;2022-12-19T00:16:17;27.95;;;11.95;;
66585;SDS011;53444;45.822;16.092;2022-12-19T00:18:47;22.08;;;11.63;;
66585;SDS011;53444;45.822;16.092;2022-12-19T00:21:15;31.63;;;12.70;;
66585;SDS011;53444;45.822;16.092;2022-12-19T00:23:43;23.73;;;12.30;;
66585;SDS011;53444;45.822;16.092;2022-12-19T00:26:11;31.95;;;14.73;;
66585;SDS011;53444;45.822;16.092;2022-12-19T00:28:39;33.97;;;14.13;;
66585;SDS011;53444;45.822;16.092;2022-12-19T00:31:06;33.92;;;14.73;;
66585;SDS011;53444;45.822;16.092;2022-12-19T00:33:33;33.05;;;15.15;;
66585;SDS011;53444;45.822;16.092;2022-12-19T00:36:02;32.90;;;15.43;;
66585;SDS011;53444;45.822;16.092;2022-12-19T00:38:30;34.38;;;15.80;;
66585;SDS011;53444;45.822;16.092;2022-12-19T00:41:04;38.10;;;15.70;;
66585;SDS011;53444;45.822;16.092;2022-12-19T00:43:31;28.00;;;13.02;;
66585;SDS011;53444;45.822;16.092;2022-12-19T00:46:00;33.70;;;14.88;;
66585;SDS011;53444;45.822;16.092;2022-12-19T00:48:27;31.60;;;14.13;;
66585;SDS011;53444;45.822;16.092;2022-12-19T00:50:57;26.48;;;12.23;;
66585;SDS011;53444;45.822;16.092;2022-12-19T00:53:25;27.23;;;13.40;;
66585;SDS011;53444;45.822;16.092;2022-12-19T00:55:52;31.83;;;13.85;;
66585;SDS011;53444;45.822;16.092;2022-12-19T00:58:19;29.75;;;13.13;;
66585;SDS011;53444;45.822;16.092;2022-12-19T01:00:45;31.70;;;13.97;;
66585;SDS011;53444;45.822;16.092;2022-12-19T01:03:12;33.47;;;14.27;;
66585;SDS011;53444;45.822;16.092;2022-12-19T01:05:38;28.77;;;13.02;;
66585;SDS011;53444;45.822;16.092;2022-12-19T01:08:05;29.10;;;14.23;;
66585;SDS011;53444;45.822;16.092;2022-12-19T01:10:33;28.50;;;13.63;;
66585;SDS011;53444;45.822;16.092;2022-12-19T01:12:59;28.27;;;14.27;;
66585;SDS011;53444;45.822;16.092;2022-12-19T01:15:25;27.33;;;13.93;;
66585;SDS011;53444;45.822;16.092;2022-12-19T01:17:52;27.58;;;13.40;;
66585;SDS011;53444;45.822;16.092;2022-12-19T01:20:19;28.80;;;12.80;;
66585;SDS011;53444;45.822;16.092;2022-12-19T01:22:46;26.30;;;11.93;;
66585;SDS011;53444;45.822;16.092;2022-12-19T01:25:13;21.75;;;11.00;;
66585;SDS011;53444;45.822;16.092;2022-12-19T01:27:41;24.15;;;10.52;;
66585;SDS011;53444;45.822;16.092;2022-12-19T01:30:08;19.25;;;10.65;;
66585;SDS011;53444;45.822;16.092;2022-12-19T01:32:36;24.50;;;10.30;;
66585;SDS011;53444;45.822;16.092;2022-12-19T01:35:03;24.48;;;10.57;;
66585;SDS011;53444;45.822;16.092;2022-12-19T01:37:30;25.20;;;12.68;;
66585;SDS011;53444;45.822;16.092;2022-12-19T01:39:56;30.10;;;11.85;;
66585;SDS011;53444;45.822;16.092;2022-12-19T01:42:23;20.98;;;11.05;;
66585;SDS011;53444;45.822;16.092;2022-12-19T01:47:52;26.25;;;10.68;;
66585;SDS011;53444;45.822;16.092;2022-12-19T01:50:22;25.73;;;11.90;;
66585;SDS011;53444;45.822;16.092;2022-12-19T01:52:52;24.70;;;11.98;;
66585;SDS011;53444;45.822;16.092;2022-12-19T01:55:19;29.98;;;12.57;;
66585;SDS011;53444;45.822;16.092;2022-12-19T01:57:46;27.73;;;13.17;;
66585;SDS011;53444;45.822;16.092;2022-12-19T02:00:13;22.50;;;11.30;;
66585;SDS011;53444;45.822;16.092;2022-12-19T02:02:42;22.33;;;11.52;;
66585;SDS011;53444;45.822;16.092;2022-12-19T02:05:13;33.90;;;12.02;;
66585;SDS011;53444;45.822;16.092;2022-12-19T02:07:39;24.27;;;11.10;;
66585;SDS011;53444;45.822;16.092;2022-12-19T02:10:08;27.80;;;11.77;;
66585;SDS011;53444;45.822;16.092;2022-12-19T02:12:35;20.73;;;11.02;;
66585;SDS011;53444;45.822;16.092;2022-12-19T02:15:03;27.15;;;10.63;;
66585;SDS011;53444;45.822;16.092;2022-12-19T02:17:33;24.33;;;10.68;;
66585;SDS011;53444;45.822;16.092;2022-12-19T02:23:08;25.73;;;11.33;;
66585;SDS011;53444;45.822;16.092;2022-12-19T02:25:59;24.88;;;10.10;;
66585;SDS011;53444;45.822;16.092;2022-12-19T02:28:48;27.05;;;12.00;;
66585;SDS011;53444;45.822;16.092;2022-12-19T02:31:28;25.00;;;10.07;;
66585;SDS011;53444;45.822;16.092;2022-12-19T02:33:59;32.10;;;12.18;;
66585;SDS011;53444;45.822;16.092;2022-12-19T02:36:31;34.90;;;12.43;;
66585;SDS011;53444;45.822;16.092;2022-12-19T02:39:04;31.27;;;12.23;;
66585;SDS011;53444;45.822;16.092;2022-12-19T02:41:35;29.70;;;13.32;;
66585;SDS011;53444;45.822;16.092;2022-12-19T02:44:08;31.67;;;13.48;;
66585;SDS011;53444;45.822;16.092;2022-12-19T02:46:39;29.65;;;12.30;;
66585;SDS011;53444;45.822;16.092;2022-12-19T02:49:07;29.70;;;13.47;;
66585;SDS011;53444;45.822;16.092;2022-12-19T02:51:34;29.83;;;14.65;;
66585;SDS011;53444;45.822;16.092;2022-12-19T02:54:01;37.78;;;14.70;;
66585;SDS011;53444;45.822;16.092;2022-12-19T02:56:31;29.33;;;13.23;;
66585;SDS011;53444;45.822;16.092;2022-12-19T02:59:13;32.72;;;13.43;;
66585;SDS011;53444;45.822;16.092;2022-12-19T03:01:50;28.60;;;12.00;;
66585;SDS011;53444;45.822;16.092;2022-12-19T03:04:25;35.17;;;14.55;;
66585;SDS011;53444;45.822;16.092;2022-12-19T03:06:59;26.27;;;11.80;;
66585;SDS011;53444;45.822;16.092;2022-12-19T03:09:31;35.65;;;14.82;;
66585;SDS011;53444;45.822;16.092;2022-12-19T03:12:05;26.75;;;13.50;;
66585;SDS011;53444;45.822;16.092;2022-12-19T03:14:39;25.27;;;11.70;;
66585;SDS011;53444;45.822;16.092;2022-12-19T03:17:08;34.88;;;13.60;;
66585;SDS011;53444;45.822;16.092;2022-12-19T03:19:35;28.05;;;13.00;;
66585;SDS011;53444;45.822;16.092;2022-12-19T03:22:04;26.00;;;12.60;;
66585;SDS011;53444;45.822;16.092;2022-12-19T03:24:33;33.35;;;14.00;;
66585;SDS011;53444;45.822;16.092;2022-12-19T03:27:00;35.73;;;14.00;;
66585;SDS011;53444;45.822;16.092;2022-12-19T03:29:31;40.95;;;16.23;;
66585;SDS011;53444;45.822;16.092;2022-12-19T03:32:02;34.00;;;14.10;;
66585;SDS011;53444;45.822;16.092;2022-12-19T03:34:33;31.92;;;15.13;;
66585;SDS011;53444;45.822;16.092;2022-12-19T03:37:04;33.08;;;14.48;;
66585;SDS011;53444;45.822;16.092;2022-12-19T03:39:35;34.73;;;15.77;;
66585;SDS011;53444;45.822;16.092;2022-12-19T03:42:04;29.83;;;13.98;;
66585;SDS011;53444;45.822;16.092;2022-12-19T03:44:50;36.85;;;16.15;;
66585;SDS011;53444;45.822;16.092;2022-12-19T03:47:19;35.72;;;16.00;;
66585;SDS011;53444;45.822;16.092;2022-12-19T03:49:53;34.75;;;14.65;;
66585;SDS011;53444;45.822;16.092;2022-12-19T03:52:23;41.93;;;15.43;;
66585;SDS011;53444;45.822;16.092;2022-12-19T03:54:54;36.90;;;16.83;;
66585;SDS011;53444;45.822;16.092;2022-12-19T03:57:30;35.03;;;14.50;;
66585;SDS011;53444;45.822;16.092;2022-12-19T04:00:01;40.80;;;16.95;;
66585;SDS011;53444;45.822;16.092;2022-12-19T04:02:57;43.63;;;16.65;;
66585;SDS011;53444;45.822;16.092;2022-12-19T04:05:26;40.93;;;15.70;;
66585;SDS011;53444;45.822;16.092;2022-12-19T04:07:55;41.38;;;15.82;;
66585;SDS011;53444;45.822;16.092;2022-12-19T04:10:25;38.13;;;15.43;;
66585;SDS011;53444;45.822;16.092;2022-12-19T04:12:54;41.78;;;17.30;;
66585;SDS011;53444;45.822;16.092;2022-12-19T04:15:28;49.25;;;16.50;;
66585;SDS011;53444;45.822;16.092;2022-12-19T04:17:59;40.27;;;17.27;;
66585;SDS011;53444;45.822;16.092;2022-12-19T04:20:31;40.42;;;17.10;;
66585;SDS011;53444;45.822;16.092;2022-12-19T04:23:02;43.72;;;15.70;;
66585;SDS011;53444;45.822;16.092;2022-12-19T04:25:34;44.42;;;16.30;;
66585;SDS011;53444;45.822;16.092;2022-12-19T04:28:03;37.05;;;16.10;;
66585;SDS011;53444;45.822;16.092;2022-12-19T04:30:34;43.87;;;16.23;;
66585;SDS011;53444;45.822;16.092;2022-12-19T04:33:02;37.60;;;14.80;;
66585;SDS011;53444;45.822;16.092;2022-12-19T04:35:30;37.38;;;15.07;;
66585;SDS011;53444;45.822;16.092;2022-12-19T04:37:57;41.45;;;14.48;;
66585;SDS011;53444;45.822;16.092;2022-12-19T04:40:24;34.30;;;14.18;;
66585;SDS011;53444;45.822;16.092;2022-12-19T04:42:50;47.70;;;16.90;;
66585;SDS011;53444;45.822;16.092;2022-12-19T04:45:17;40.58;;;15.23;;
66585;SDS011;53444;45.822;16.092;2022-12-19T04:47:43;41.45;;;15.88;;
66585;SDS011;53444;45.822;16.092;2022-12-19T04:50:10;42.85;;;16.85;;
66585;SDS011;53444;45.822;16.092;2022-12-19T04:52:38;48.70;;;17.60;;
66585;SDS011;53444;45.822;16.092;2022-12-19T04:55:05;44.40;;;16.80;;
66585;SDS011;53444;45.822;16.092;2022-12-19T04:57:33;54.40;;;15.68;;
66585;SDS011;53444;45.822;16.092;2022-12-19T04:59:59;45.28;;;16.50;;
66585;SDS011;53444;45.822;16.092;2022-12-19T05:02:27;41.22;;;17.60;;
66585;SDS011;53444;45.822;16.092;2022-12-19T05:04:54;48.63;;;17.13;;
66585;SDS011;53444;45.822;16.092;2022-12-19T05:07:21;43.47;;;14.70;;
66585;SDS011;53444;45.822;16.092;2022-12-19T05:09:49;42.10;;;15.27;;
66585;SDS011;53444;45.822;16.092;2022-12-19T05:12:15;44.95;;;14.98;;
66585;SDS011;53444;45.822;16.092;2022-12-19T05:14:42;43.35;;;15.18;;
66585;SDS011;53444;45.822;16.092;2022-12-19T05:17:08;54.30;;;16.90;;
66585;SDS011;53444;45.822;16.092;2022-12-19T05:19:35;37.50;;;15.40;;
66585;SDS011;53444;45.822;16.092;2022-12-19T05:22:02;46.17;;;17.30;;
66585;SDS011;53444;45.822;16.092;2022-12-19T05:24:28;42.90;;;16.65;;
66585;SDS011;53444;45.822;16.092;2022-12-19T05:26:56;46.15;;;14.90;;
66585;SDS011;53444;45.822;16.092;2022-12-19T05:29:23;51.83;;;16.13;;
66585;SDS011;53444;45.822;16.092;2022-12-19T05:31:49;52.10;;;16.57;;
66585;SDS011;53444;45.822;16.092;2022-12-19T05:34:16;42.22;;;15.95;;
66585;SDS011;53444;45.822;16.092;2022-12-19T05:36:43;37.50;;;15.32;;
66585;SDS011;53444;45.822;16.092;2022-12-19T05:39:10;40.08;;;15.30;;
66585;SDS011;53444;45.822;16.092;2022-12-19T05:41:37;51.30;;;18.08;;
66585;SDS011;53444;45.822;16.092;2022-12-19T05:44:05;45.83;;;16.40;;
66585;SDS011;53444;45.822;16.092;2022-12-19T05:46:32;39.47;;;13.13;;
66585;SDS011;53444;45.822;16.092;2022-12-19T05:48:58;57.78;;;15.48;;
66585;SDS011;53444;45.822;16.092;2022-12-19T05:51:25;44.30;;;15.95;;
66585;SDS011;53444;45.822;16.092;2022-12-19T05:53:51;44.92;;;14.32;;
66585;SDS011;53444;45.822;16.092;2022-12-19T05:56:19;35.27;;;14.87;;
66585;SDS011;53444;45.822;16.092;2022-12-19T05:58:47;42.33;;;12.50;;
66585;SDS011;53444;45.822;16.092;2022-12-19T06:01:16;40.63;;;12.60;;
66585;SDS011;53444;45.822;16.092;2022-12-19T06:03:45;38.35;;;12.85;;
66585;SDS011;53444;45.822;16.092;2022-12-19T06:06:13;34.15;;;13.93;;
66585;SDS011;53444;45.822;16.092;2022-12-19T06:08:41;44.53;;;12.37;;
66585;SDS011;53444;45.822;16.092;2022-12-19T06:11:08;36.72;;;12.73;;
66585;SDS011;53444;45.822;16.092;2022-12-19T06:13:36;37.47;;;13.20;;
66585;SDS011;53444;45.822;16.092;2022-12-19T06:16:03;35.47;;;12.93;;
66585;SDS011;53444;45.822;16.092;2022-12-19T06:18:33;44.58;;;14.43;;
66585;SDS011;53444;45.822;16.092;2022-12-19T06:21:00;35.27;;;13.27;;
66585;SDS011;53444;45.822;16.092;2022-12-19T06:23:28;33.92;;;13.70;;
66585;SDS011;53444;45.822;16.092;2022-12-19T06:25:56;38.05;;;13.13;;
66585;SDS011;53444;45.822;16.092;2022-12-19T06:28:23;35.15;;;12.75;;
66585;SDS011;53444;45.822;16.092;2022-12-19T06:30:51;37.95;;;12.18;;
66585;SDS011;53444;45.822;16.092;2022-12-19T06:33:18;36.00;;;11.27;;
66585;SDS011;53444;45.822;16.092;2022-12-19T06:35:45;32.53;;;12.05;;
66585;SDS011;53444;45.822;16.092;2022-12-19T06:38:12;34.20;;;12.48;;
66585;SDS011;53444;45.822;16.092;2022-12-19T06:40:40;37.28;;;13.85;;
66585;SDS011;53444;45.822;16.092;2022-12-19T06:43:25;40.25;;;13.68;;
66585;SDS011;53444;45.822;16.092;2022-12-19T06:45:52;36.80;;;16.53;;
66585;SDS011;53444;45.822;16.092;2022-12-19T06:48:19;44.35;;;16.05;;
66585;SDS011;53444;45.822;16.092;2022-12-19T06:50:47;42.20;;;14.32;;
66585;SDS011;53444;45.822;16.092;2022-12-19T06:53:13;35.70;;;12.75;;
66585;SDS011;53444;45.822;16.092;2022-12-19T06:55:40;34.30;;;12.18;;
66585;SDS011;53444;45.822;16.092;2022-12-19T06:58:06;41.77;;;15.43;;
66585;SDS011;53444;45.822;16.092;2022-12-19T07:00:34;42.45;;;12.90;;
66585;SDS011;53444;45.822;16.092;2022-12-19T07:03:00;41.80;;;12.80;;
66585;SDS011;53444;45.822;16.092;2022-12-19T07:05:31;46.00;;;13.98;;
66585;SDS011;53444;45.822;16.092;2022-12-19T07:08:00;46.17;;;15.27;;
66585;SDS011;53444;45.822;16.092;2022-12-19T07:10:27;35.83;;;12.90;;
66585;SDS011;53444;45.822;16.092;2022-12-19T07:12:53;45.10;;;15.05;;
66585;SDS011;53444;45.822;16.092;2022-12-19T07:15:20;40.25;;;13.50;;
66585;SDS011;53444;45.822;16.092;2022-12-19T07:17:47;46.70;;;11.80;;
66585;SDS011;53444;45.822;16.092;2022-12-19T07:20:14;51.15;;;14.63;;
66585;SDS011;53444;45.822;16.092;2022-12-19T07:22:42;35.93;;;13.27;;
66585;SDS011;53444;45.822;16.092;2022-12-19T07:25:11;35.15;;;11.95;;
66585;SDS011;53444;45.822;16.092;2022-12-19T07:27:37;46.17;;;13.55;;
66585;SDS011;53444;45.822;16.092;2022-12-19T07:30:05;39.45;;;14.07;;
66585;SDS011;53444;45.822;16.092;2022-12-19T07:32:33;41.95;;;12.70;;
66585;SDS011;53444;45.822;16.092;2022-12-19T07:34:59;31.93;;;13.13;;
66585;SDS011;53444;45.822;16.092;2022-12-19T07:37:27;38.38;;;12.88;;
66585;SDS011;53444;45.822;16.092;2022-12-19T07:39:57;38.75;;;12.55;;
66585;SDS011;53444;45.822;16.092;2022-12-19T07:42:25;42.72;;;13.23;;
66585;SDS011;53444;45.822;16.092;2022-12-19T07:44:51;46.10;;;13.80;;
66585;SDS011;53444;45.822;16.092;2022-12-19T07:47:18;39.50;;;13.47;;
66585;SDS011;53444;45.822;16.092;2022-12-19T07:49:45;41.70;;;13.80;;
66585;SDS011;53444;45.822;16.092;2022-12-19T07:52:11;41.85;;;15.10;;
66585;SDS011;53444;45.822;16.092;2022-12-19T07:54:38;41.45;;;15.32;;
66585;SDS011;53444;45.822;16.092;2022-12-19T07:57:05;59.00;;;18.38;;
66585;SDS011;53444;45.822;16.092;2022-12-19T07:59:33;40.27;;;15.37;;
66585;SDS011;53444;45.822;16.092;2022-12-19T08:02:00;40.25;;;13.75;;
66585;SDS011;53444;45.822;16.092;2022-12-19T08:04:26;43.08;;;12.80;;
66585;SDS011;53444;45.822;16.092;2022-12-19T08:06:53;41.97;;;14.98;;
66585;SDS011;53444;45.822;16.092;2022-12-19T08:09:20;42.25;;;14.18;;
66585;SDS011;53444;45.822;16.092;2022-12-19T08:11:46;70.20;;;18.77;;
66585;SDS011;53444;45.822;16.092;2022-12-19T08:14:13;36.05;;;13.73;;
66585;SDS011;53444;45.822;16.092;2022-12-19T08:16:41;46.00;;;14.73;;
66585;SDS011;53444;45.822;16.092;2022-12-19T08:19:08;40.10;;;14.20;;
66585;SDS011;53444;45.822;16.092;2022-12-19T08:21:34;45.67;;;15.80;;
66585;SDS011;53444;45.822;16.092;2022-12-19T08:24:01;39.13;;;13.23;;
66585;SDS011;53444;45.822;16.092;2022-12-19T08:26:28;45.85;;;12.50;;
66585;SDS011;53444;45.822;16.092;2022-12-19T08:28:56;39.15;;;13.57;;
66585;SDS011;53444;45.822;16.092;2022-12-19T08:31:24;47.83;;;14.75;;
66585;SDS011;53444;45.822;16.092;2022-12-19T08:33:53;36.67;;;13.23;;
66585;SDS011;53444;45.822;16.092;2022-12-19T08:36:21;37.77;;;11.70;;
66585;SDS011;53444;45.822;16.092;2022-12-19T08:38:49;45.60;;;13.65;;
66585;SDS011;53444;45.822;16.092;2022-12-19T08:41:16;48.22;;;14.88;;
66585;SDS011;53444;45.822;16.092;2022-12-19T08:43:47;39.60;;;14.13;;
66585;SDS011;53444;45.822;16.092;2022-12-19T08:46:14;40.58;;;13.77;;
66585;SDS011;53444;45.822;16.092;2022-12-19T08:48:41;35.97;;;12.50;;
66585;SDS011;53444;45.822;16.092;2022-12-19T08:51:10;44.22;;;14.15;;
66585;SDS011;53444;45.822;16.092;2022-12-19T08:53:38;41.08;;;12.65;;
66585;SDS011;53444;45.822;16.092;2022-12-19T08:56:07;49.25;;;15.13;;
66585;SDS011;53444;45.822;16.092;2022-12-19T08:58:36;43.08;;;15.65;;
66585;SDS011;53444;45.822;16.092;2022-12-19T09:01:04;49.30;;;18.00;;
66585;SDS011;53444;45.822;16.092;2022-12-19T09:03:32;50.95;;;17.70;;
66585;SDS011;53444;45.822;16.092;2022-12-19T09:06:00;45.40;;;14.68;;
66585;SDS011;53444;45.822;16.092;2022-12-19T09:08:30;50.45;;;15.25;;
66585;SDS011;53444;45.822;16.092;2022-12-19T09:10:58;44.00;;;14.77;;
66585;SDS011;53444;45.822;16.092;2022-12-19T09:13:25;46.63;;;13.77;;
66585;SDS011;53444;45.822;16.092;2022-12-19T09:15:58;33.92;;;12.70;;
66585;SDS011;53444;45.822;16.092;2022-12-19T09:18:26;34.35;;;13.65;;
66585;SDS011;53444;45.822;16.092;2022-12-19T09:20:53;49.50;;;16.83;;
66585;SDS011;53444;45.822;16.092;2022-12-19T09:23:20;46.53;;;14.05;;
66585;SDS011;53444;45.822;16.092;2022-12-19T09:25:48;47.20;;;17.03;;
66585;SDS011;53444;45.822;16.092;2022-12-19T09:28:15;46.28;;;14.63;;
66585;SDS011;53444;45.822;16.092;2022-12-19T09:30:41;55.08;;;16.25;;
66585;SDS011;53444;45.822;16.092;2022-12-19T09:33:09;49.00;;;16.88;;
66585;SDS011;53444;45.822;16.092;2022-12-19T09:35:36;44.88;;;15.15;;
66585;SDS011;53444;45.822;16.092;2022-12-19T09:38:03;56.73;;;18.77;;
66585;SDS011;53444;45.822;16.092;2022-12-19T09:40:42;39.42;;;16.05;;
66585;SDS011;53444;45.822;16.092;2022-12-19T09:43:23;52.33;;;16.45;;
66585;SDS011;53444;45.822;16.092;2022-12-19T09:46:01;51.78;;;14.45;;
66585;SDS011;53444;45.822;16.092;2022-12-19T09:48:38;63.78;;;19.67;;
66585;SDS011;53444;45.822;16.092;2022-12-19T09:51:06;42.40;;;17.97;;
66585;SDS011;53444;45.822;16.092;2022-12-19T09:53:48;54.20;;;15.82;;
66585;SDS011;53444;45.822;16.092;2022-12-19T09:56:26;49.97;;;16.92;;
66585;SDS011;53444;45.822;16.092;2022-12-19T09:58:57;52.50;;;17.30;;
66585;SDS011;53444;45.822;16.092;2022-12-19T10:01:30;57.50;;;22.42;;
66585;SDS011;53444;45.822;16.092;2022-12-19T10:04:02;53.57;;;20.20;;
66585;SDS011;53444;45.822;16.092;2022-12-19T10:06:33;48.67;;;16.02;;
66585;SDS011;53444;45.822;16.092;2022-12-19T10:09:00;52.00;;;17.73;;
66585;SDS011;53444;45.822;16.092;2022-12-19T10:11:32;60.63;;;17.98;;
66585;SDS011;53444;45.822;16.092;2022-12-19T10:14:20;46.15;;;18.48;;
66585;SDS011;53444;45.822;16.092;2022-12-19T10:16:59;50.43;;;17.63;;
66585;SDS011;53444;45.822;16.092;2022-12-19T10:19:36;49.15;;;16.15;;
66585;SDS011;53444;45.822;16.092;2022-12-19T10:22:12;46.70;;;15.93;;
66585;SDS011;53444;45.822;16.092;2022-12-19T10:24:58;50.75;;;17.17;;
66585;SDS011;53444;45.822;16.092;2022-12-19T10:27:35;42.95;;;14.68;;
66585;SDS011;53444;45.822;16.092;2022-12-19T10:30:09;51.17;;;17.17;;
66585;SDS011;53444;45.822;16.092;2022-12-19T10:32:40;51.10;;;18.35;;
66585;SDS011;53444;45.822;16.092;2022-12-19T10:35:16;49.10;;;17.02;;
66585;SDS011;53444;45.822;16.092;2022-12-19T10:37:44;54.00;;;15.43;;
66585;SDS011;53444;45.822;16.092;2022-12-19T10:40:18;46.05;;;16.85;;
66585;SDS011;53444;45.822;16.092;2022-12-19T10:42:52;44.97;;;14.10;;
66585;SDS011;53444;45.822;16.092;2022-12-19T10:45:22;76.57;;;25.63;;
66585;SDS011;53444;45.822;16.092;2022-12-19T10:47:54;74.50;;;29.63;;
66585;SDS011;53444;45.822;16.092;2022-12-19T10:50:23;55.58;;;19.80;;
66585;SDS011;53444;45.822;16.092;2022-12-19T10:52:51;44.90;;;16.88;;
66585;SDS011;53444;45.822;16.092;2022-12-19T10:55:36;49.23;;;16.07;;
66585;SDS011;53444;45.822;16.092;2022-12-19T10:58:20;49.80;;;13.25;;
66585;SDS011;53444;45.822;16.092;2022-12-19T11:03:37;47.60;;;15.77;;
66585;SDS011;53444;45.822;16.092;2022-12-19T11:06:06;43.35;;;14.45;;
66585;SDS011;53444;45.822;16.092;2022-12-19T11:09:14;40.33;;;13.97;;
66585;SDS011;53444;45.822;16.092;2022-12-19T11:11:43;44.60;;;13.75;;
66585;SDS011;53444;45.822;16.092;2022-12-19T11:14:18;45.30;;;13.55;;
66585;SDS011;53444;45.822;16.092;2022-12-19T11:16:47;42.78;;;14.07;;
66585;SDS011;53444;45.822;16.092;2022-12-19T11:19:20;45.20;;;15.50;;
66585;SDS011;53444;45.822;16.092;2022-12-19T11:21:52;46.60;;;14.57;;
66585;SDS011;53444;45.822;16.092;2022-12-19T11:24:27;46.58;;;15.10;;
66585;SDS011;53444;45.822;16.092;2022-12-19T11:26:56;47.75;;;16.38;;
66585;SDS011;53444;45.822;16.092;2022-12-19T11:29:25;45.47;;;16.85;;
66585;SDS011;53444;45.822;16.092;2022-12-19T11:32:03;37.17;;;14.70;;
66585;SDS011;53444;45.822;16.092;2022-12-19T11:34:30;42.80;;;14.97;;
66585;SDS011;53444;45.822;16.092;2022-12-19T11:37:02;38.58;;;14.15;;
66585;SDS011;53444;45.822;16.092;2022-12-19T11:39:38;48.13;;;16.38;;
66585;SDS011;53444;45.822;16.092;2022-12-19T11:42:11;44.97;;;15.05;;
66585;SDS011;53444;45.822;16.092;2022-12-19T11:44:48;42.60;;;15.02;;
66585;SDS011;53444;45.822;16.092;2022-12-19T11:47:25;47.77;;;14.77;;
66585;SDS011;53444;45.822;16.092;2022-12-19T11:49:59;44.00;;;14.95;;
66585;SDS011;53444;45.822;16.092;2022-12-19T11:52:34;46.65;;;15.30;;
66585;SDS011;53444;45.822;16.092;2022-12-19T11:55:06;43.85;;;15.63;;
66585;SDS011;53444;45.822;16.092;2022-12-19T11:57:43;42.88;;;14.30;;
66585;SDS011;53444;45.822;16.092;2022-12-19T12:00:12;51.23;;;15.60;;
66585;SDS011;53444;45.822;16.092;2022-12-19T12:02:49;48.25;;;15.50;;
66585;SDS011;53444;45.822;16.092;2022-12-19T12:05:48;50.83;;;15.18;;
66585;SDS011;53444;45.822;16.092;2022-12-19T12:08:24;43.53;;;14.48;;
66585;SDS011;53444;45.822;16.092;2022-12-19T12:11:02;48.25;;;14.95;;
66585;SDS011;53444;45.822;16.092;2022-12-19T12:13:43;34.77;;;12.30;;
66585;SDS011;53444;45.822;16.092;2022-12-19T12:16:17;45.47;;;15.88;;
66585;SDS011;53444;45.822;16.092;2022-12-19T12:18:55;40.65;;;13.45;;
66585;SDS011;53444;45.822;16.092;2022-12-19T12:21:31;45.63;;;13.65;;
66585;SDS011;53444;45.822;16.092;2022-12-19T12:24:04;42.28;;;13.13;;
66585;SDS011;53444;45.822;16.092;2022-12-19T12:26:41;47.47;;;15.73;;
66585;SDS011;53444;45.822;16.092;2022-12-19T12:29:14;44.58;;;14.70;;
66585;SDS011;53444;45.822;16.092;2022-12-19T12:31:55;45.33;;;13.27;;
66585;SDS011;53444;45.822;16.092;2022-12-19T12:34:52;41.00;;;12.55;;
66585;SDS011;53444;45.822;16.092;2022-12-19T12:37:31;38.88;;;12.88;;
66585;SDS011;53444;45.822;16.092;2022-12-19T12:40:23;42.77;;;12.37;;
66585;SDS011;53444;45.822;16.092;2022-12-19T12:43:04;44.13;;;12.40;;
66585;SDS011;53444;45.822;16.092;2022-12-19T12:45:42;49.13;;;13.82;;
66585;SDS011;53444;45.822;16.092;2022-12-19T12:48:15;36.50;;;13.73;;
66585;SDS011;53444;45.822;16.092;2022-12-19T12:50:46;47.05;;;16.63;;
66585;SDS011;53444;45.822;16.092;2022-12-19T12:53:15;43.87;;;15.57;;
66585;SDS011;53444;45.822;16.092;2022-12-19T12:55:43;56.15;;;15.55;;
66585;SDS011;53444;45.822;16.092;2022-12-19T13:01:29;50.72;;;18.30;;
66585;SDS011;53444;45.822;16.092;2022-12-19T13:04:02;46.90;;;17.58;;
66585;SDS011;53444;45.822;16.092;2022-12-19T13:06:32;50.33;;;17.73;;
66585;SDS011;53444;45.822;16.092;2022-12-19T13:09:02;47.03;;;19.27;;
66585;SDS011;53444;45.822;16.092;2022-12-19T13:11:34;61.35;;;21.70;;
66585;SDS011;53444;45.822;16.092;2022-12-19T13:17:08;40.35;;;14.23;;
66585;SDS011;53444;45.822;16.092;2022-12-19T13:19:37;50.17;;;14.57;;
66585;SDS011;53444;45.822;16.092;2022-12-19T13:22:15;46.55;;;14.75;;
66585;SDS011;53444;45.822;16.092;2022-12-19T13:24:44;48.42;;;15.27;;
66585;SDS011;53444;45.822;16.092;2022-12-19T13:30:18;42.22;;;14.43;;
66585;SDS011;53444;45.822;16.092;2022-12-19T13:35:36;45.50;;;13.30;;
66585;SDS011;53444;45.822;16.092;2022-12-19T13:38:16;43.05;;;13.38;;
66585;SDS011;53444;45.822;16.092;2022-12-19T13:40:56;47.38;;;14.68;;
66585;SDS011;53444;45.822;16.092;2022-12-19T13:43:26;48.85;;;14.32;;
66585;SDS011;53444;45.822;16.092;2022-12-19T13:46:19;40.60;;;15.93;;
66585;SDS011;53444;45.822;16.092;2022-12-19T13:48:50;33.58;;;14.07;;
66585;SDS011;53444;45.822;16.092;2022-12-19T13:51:23;41.40;;;14.45;;
66585;SDS011;53444;45.822;16.092;2022-12-19T13:53:50;54.83;;;15.05;;
66585;SDS011;53444;45.822;16.092;2022-12-19T13:56:20;44.25;;;15.18;;
66585;SDS011;53444;45.822;16.092;2022-12-19T13:58:47;40.53;;;15.00;;
66585;SDS011;53444;45.822;16.092;2022-12-19T14:01:17;50.85;;;15.70;;
66585;SDS011;53444;45.822;16.092;2022-12-19T14:03:49;43.75;;;14.80;;
66585;SDS011;53444;45.822;16.092;2022-12-19T14:06:19;47.78;;;15.35;;
66585;SDS011;53444;45.822;16.092;2022-12-19T14:08:49;38.40;;;14.38;;
66585;SDS011;53444;45.822;16.092;2022-12-19T14:11:17;39.53;;;14.27;;
66585;SDS011;53444;45.822;16.092;2022-12-19T14:13:46;49.10;;;15.73;;
66585;SDS011;53444;45.822;16.092;2022-12-19T14:16:34;51.53;;;15.65;;
66585;SDS011;53444;45.822;16.092;2022-12-19T14:19:00;47.58;;;15.15;;
66585;SDS011;53444;45.822;16.092;2022-12-19T14:21:27;42.15;;;15.57;;
66585;SDS011;53444;45.822;16.092;2022-12-19T14:24:13;42.30;;;13.20;;
66585;SDS011;53444;45.822;16.092;2022-12-19T14:26:42;43.75;;;14.32;;
66585;SDS011;53444;45.822;16.092;2022-12-19T14:29:11;37.63;;;14.20;;
66585;SDS011;53444;45.822;16.092;2022-12-19T14:31:41;39.90;;;14.30;;
66585;SDS011;53444;45.822;16.092;2022-12-19T14:34:08;44.00;;;14.05;;
66585;SDS011;53444;45.822;16.092;2022-12-19T14:36:46;42.30;;;13.90;;
66585;SDS011;53444;45.822;16.092;2022-12-19T14:39:16;42.75;;;18.48;;
66585;SDS011;53444;45.822;16.092;2022-12-19T14:41:46;48.05;;;15.75;;
66585;SDS011;53444;45.822;16.092;2022-12-19T14:44:43;47.85;;;17.25;;
66585;SDS011;53444;45.822;16.092;2022-12-19T14:47:12;41.67;;;14.68;;
66585;SDS011;53444;45.822;16.092;2022-12-19T14:49:45;42.03;;;15.27;;